Kodiak, AK (99615)

2:48 AM AKDT on July 24, 2014 (GMT -0800)
Bob Plyler on Selief Lane (KAKKODIA1) Elev 115 ft | 57.80 °N, 152.39 °W | Change Station

Current weather conditions updated 3 seconds ago

Mostly Cloudy
Mostly Cloudy
52.0 °F
Feels Like 52.0 °F
N
0.0
Wind Variable Wind from North
Gusts 0.0 mph

Today is forecast to be Much Cooler than yesterday. Chance of late night showers tonight.

Today
High -- | Low -- °F
--% Chance of Precip.
Yesterday
High -- | Low -- °F
Precip. -- in
5:48 AM 10:42 PM
Waning Crescent, 6% visible
Pressure 29.88 in
Visibility 10.0 miles
Clouds Few 2500 ft
Scattered Clouds 8000 ft
Mostly Cloudy 25000 ft
Dew Point 42 °F
Humidity 68%
Rainfall 0.00 in
Snow Depth Not available.
UV 0 out of 12
Pollen Not available.
Air Quality Not available.
Flu Activity Not available.
METAR PADQ 240953Z 28004KT 10SM FEW025 SCT080 BKN250 11/10 A2988 RMK AO2 SLP119 T01110100

More Conditions Fewer Conditions

Pressure 29.88 in
Visibility 10.0 miles
Clouds Few 2500 ft
Scattered Clouds 8000 ft
Mostly Cloudy 25000 ft
Dew Point 42 °F
Humidity 68%
Rainfall 0.00 in
Snow Depth Not available.
UV 0 out of 12
Pollen Not available.
Air Quality Not available.
Flu Activity Not available.
METAR PADQ 240953Z 28004KT 10SM FEW025 SCT080 BKN250 11/10 A2988 RMK AO2 SLP119 T01110100

More Conditions Fewer Conditions

10-Day Weather Forecast

Almanac

Astronomy

Jul. 24, 2014 Rise Set
Actual Time 5:48 AM AKDT 10:42 PM AKDT
Civil Twilight 4:51 AM AKDT 11:39 PM AKDT
Nautical Twilight 2:52 AM AKDT 1:31 AM AKDT
Astronomical Twilight Sun does not rise Sun does not rise
Moon 4:12 AM AKDT 8:55 PM AKDT
Length of Visible Light 18h 48m
Length of Day
16h 54m
Tomorrow will be 3m 52s shorter.
Waning Crescent, 6% of the Moon is Illuminated
Today
Waning Crescent
Jul 26
New
Aug 3
First Quarter
Aug 10
Full
Aug 17
Last Quarter

Today's Extremes

State Highs State Lows

Community

WunderPhotos

Upload Photos

1,736,966 photos uploaded!

Nearby

Snow Depth

Station Depth Elevation
Port Graham 0 in 300 ft
Mcneil Canyon 1 in 1320 ft
MF Bradley River 28 in 2300 ft
Cooper Lake 11 in 1200 ft
Grouse Creek Divide 0 in 700 ft

Earthquake Activity

City Distance Mag. Time & Date
No recent earthquake activity has been reported nearby.
Minimum magnitude displayed is 2.5.

Coastal Water Temperatures

Place Temperature
No Stations Reporting

Nearby Weather Stations

Station Location Temp. Dew Point Humidity Wind Precip. Elev Updated Type
Bob Plyler on Selief Lane, Kodiak, AK 52.0 °F 42 °F 68% North  at  0.0 mph 0.00 in / hr 115 ft 2:47 AM AKDT Rapid Fire
AKDOT Pasagshak Road Kodiak @ MP 2.1, Kodiak, AK 54 °F 53 °F 96% SSW  at  0 mph 0.00 in / hr 380 ft 1:51 AM AKDT MADIS
MARITIME , Karluk, AK 54 °F - - NW  at  18 mph 0.00 in / hr 0 ft 2:00 AM AKDT MADIS

Show More Stations Show Fewer Stations